createdAt,value
2022-10-11T00:01:22.786Z,100.00
2022-10-11T00:03:52.295Z,100.00
2022-10-11T00:06:20.260Z,100.00
2022-10-11T00:08:48.258Z,100.00
2022-10-11T00:11:16.311Z,100.00
2022-10-11T00:13:44.293Z,100.00
2022-10-11T00:16:14.301Z,100.00
2022-10-11T00:18:43.248Z,100.00
2022-10-11T00:21:15.123Z,100.00
2022-10-11T00:23:43.718Z,100.00
2022-10-11T00:26:12.505Z,100.00
2022-10-11T00:28:41.591Z,100.00
2022-10-11T00:31:10.982Z,100.00
2022-10-11T00:33:39.040Z,100.00
2022-10-11T00:36:08.762Z,100.00
2022-10-11T00:38:38.518Z,100.00
2022-10-11T00:41:06.815Z,100.00
2022-10-11T00:43:35.014Z,100.00
2022-10-11T00:46:28.421Z,100.00
2022-10-11T00:49:01.886Z,100.00
2022-10-11T00:51:39.019Z,100.00
2022-10-11T00:54:12.777Z,100.00
2022-10-11T00:56:41.314Z,100.00
2022-10-11T00:59:15.145Z,100.00
2022-10-11T01:01:43.312Z,100.00
2022-10-11T01:04:11.342Z,100.00
2022-10-11T01:06:39.335Z,100.00
2022-10-11T01:09:09.667Z,100.00
2022-10-11T01:11:40.581Z,100.00
2022-10-11T01:14:40.341Z,100.00
2022-10-11T01:17:16.956Z,100.00
2022-10-11T01:20:16.633Z,100.00
2022-10-11T01:23:09.998Z,100.00
2022-10-11T01:25:51.164Z,100.00
2022-10-11T01:28:34.227Z,100.00
2022-10-11T01:31:11.547Z,100.00
2022-10-11T01:33:44.491Z,100.00
2022-10-11T01:36:17.524Z,100.00
2022-10-11T01:38:50.976Z,100.00
2022-10-11T01:41:25.127Z,100.00
2022-10-11T01:43:57.982Z,100.00
2022-10-11T01:46:28.439Z,100.00
2022-10-11T01:48:58.994Z,100.00
2022-10-11T01:51:30.354Z,100.00
2022-10-11T01:54:12.346Z,100.00
2022-10-11T01:57:12.405Z,100.00
2022-10-11T01:59:51.494Z,100.00
2022-10-11T02:02:33.741Z,100.00
2022-10-11T02:05:09.936Z,100.00
2022-10-11T02:07:44.402Z,100.00
2022-10-11T02:10:16.861Z,100.00
2022-10-11T02:12:49.018Z,100.00
2022-10-11T02:15:20.348Z,100.00
2022-10-11T02:17:57.589Z,100.00
2022-10-11T02:20:27.436Z,100.00
2022-10-11T02:23:02.095Z,100.00
2022-10-11T02:25:34.000Z,100.00
2022-10-11T02:28:05.212Z,100.00
2022-10-11T02:30:34.965Z,100.00
2022-10-11T02:33:08.076Z,100.00
2022-10-11T02:35:43.194Z,100.00
2022-10-11T02:38:19.843Z,100.00
2022-10-11T02:40:52.759Z,100.00
2022-10-11T02:43:26.119Z,100.00
2022-10-11T02:45:57.791Z,100.00
2022-10-11T02:48:29.404Z,100.00
2022-10-11T02:50:58.171Z,100.00
2022-10-11T02:53:27.753Z,100.00
2022-10-11T02:55:56.939Z,100.00
2022-10-11T02:58:25.611Z,100.00
2022-10-11T03:00:53.743Z,100.00
2022-10-11T03:03:22.030Z,100.00
2022-10-11T03:05:51.380Z,100.00
2022-10-11T03:08:19.368Z,100.00
2022-10-11T03:10:47.705Z,100.00
2022-10-11T03:13:18.265Z,100.00
2022-10-11T03:16:01.947Z,100.00
2022-10-11T03:18:31.371Z,100.00
2022-10-11T03:21:00.762Z,100.00
2022-10-11T03:23:28.745Z,100.00
2022-10-11T03:25:57.101Z,100.00
2022-10-11T03:28:25.120Z,100.00
2022-10-11T03:30:53.653Z,100.00
2022-10-11T03:33:21.752Z,100.00
2022-10-11T03:35:50.456Z,100.00
2022-10-11T03:38:22.554Z,100.00
2022-10-11T03:40:50.515Z,100.00
2022-10-11T03:43:18.830Z,100.00
2022-10-11T03:45:46.870Z,100.00
2022-10-11T03:48:14.879Z,100.00
2022-10-11T03:50:42.878Z,100.00
2022-10-11T03:53:10.865Z,100.00
2022-10-11T03:55:41.285Z,100.00
2022-10-11T03:58:09.624Z,100.00
2022-10-11T04:00:38.227Z,100.00
2022-10-11T04:03:06.286Z,100.00
2022-10-11T04:05:34.316Z,100.00
2022-10-11T04:08:02.363Z,100.00
2022-10-11T04:10:31.161Z,100.00
2022-10-11T04:13:00.627Z,100.00
2022-10-11T04:15:28.573Z,100.00
2022-10-11T04:17:56.521Z,100.00
2022-10-11T04:20:24.482Z,100.00
2022-10-11T04:22:52.527Z,100.00
2022-10-11T04:25:20.518Z,100.00
2022-10-11T04:27:48.693Z,100.00
2022-10-11T04:30:18.303Z,100.00
2022-10-11T04:32:46.382Z,100.00
2022-10-11T04:35:14.452Z,100.00
2022-10-11T04:37:42.441Z,100.00
2022-10-11T04:40:11.910Z,100.00
2022-10-11T04:42:39.872Z,100.00
2022-10-11T04:45:09.498Z,100.00
2022-10-11T04:47:40.529Z,100.00
2022-10-11T04:50:08.927Z,100.00
2022-10-11T04:52:36.962Z,100.00
2022-10-11T04:55:05.473Z,100.00
2022-10-11T04:57:33.847Z,100.00
2022-10-11T05:00:01.809Z,100.00
2022-10-11T05:02:29.839Z,100.00
2022-10-11T05:04:59.315Z,100.00
2022-10-11T05:07:27.309Z,100.00
2022-10-11T05:09:55.477Z,100.00
2022-10-11T05:12:23.465Z,100.00
2022-10-11T05:14:51.429Z,100.00
2022-10-11T05:17:19.427Z,100.00
2022-10-11T05:19:47.450Z,100.00
2022-10-11T05:22:16.970Z,100.00
2022-10-11T05:24:44.906Z,100.00
2022-10-11T05:27:12.899Z,100.00
2022-10-11T05:29:40.825Z,100.00
2022-10-11T05:32:08.792Z,100.00
2022-10-11T05:34:36.746Z,100.00
2022-10-11T05:37:04.714Z,100.00
2022-10-11T05:39:34.109Z,100.00
2022-10-11T05:42:03.187Z,100.00
2022-10-11T05:44:32.511Z,100.00
2022-10-11T05:47:00.453Z,100.00
2022-10-11T05:49:28.465Z,100.00
2022-10-11T05:51:56.369Z,100.00
2022-10-11T05:54:24.380Z,100.00
2022-10-11T05:56:53.730Z,100.00
2022-10-11T05:59:21.683Z,100.00
2022-10-11T06:01:50.617Z,100.00
2022-10-11T06:04:19.107Z,100.00
2022-10-11T06:06:47.171Z,100.00
2022-10-11T06:09:15.118Z,100.00
2022-10-11T06:11:44.197Z,100.00
2022-10-11T06:14:13.765Z,100.00
2022-10-11T06:16:41.747Z,100.00
2022-10-11T06:19:09.747Z,100.00
2022-10-11T06:21:37.732Z,100.00
2022-10-11T06:24:06.608Z,100.00
2022-10-11T06:26:35.073Z,100.00
2022-10-11T06:29:06.557Z,100.00
2022-10-11T06:31:36.736Z,100.00
2022-10-11T06:34:05.060Z,100.00
2022-10-11T06:36:33.198Z,100.00
2022-10-11T06:39:01.595Z,100.00
2022-10-11T06:41:31.338Z,100.00
2022-10-11T06:43:59.628Z,100.00
2022-10-11T06:46:28.989Z,100.00
2022-10-11T06:48:58.379Z,100.00
2022-10-11T06:51:28.715Z,100.00
2022-10-11T06:53:58.823Z,100.00
2022-10-11T06:56:28.315Z,100.00
2022-10-11T06:58:57.514Z,100.00
2022-10-11T07:01:25.965Z,100.00
2022-10-11T07:03:55.991Z,100.00
2022-10-11T07:06:27.785Z,100.00
2022-10-11T07:08:55.835Z,100.00
2022-10-11T07:11:25.637Z,100.00
2022-10-11T07:13:58.048Z,100.00
2022-10-11T07:16:26.449Z,100.00
2022-10-11T07:19:15.327Z,100.00
2022-10-11T07:21:44.730Z,100.00
2022-10-11T07:24:12.627Z,100.00
2022-10-11T07:26:40.963Z,100.00
2022-10-11T07:29:10.105Z,100.00
2022-10-11T07:31:39.651Z,100.00
2022-10-11T07:34:07.702Z,100.00
2022-10-11T07:36:35.595Z,100.00
2022-10-11T07:39:07.719Z,100.00
2022-10-11T07:41:38.151Z,100.00
2022-10-11T07:44:08.842Z,100.00
2022-10-11T07:46:37.007Z,100.00
2022-10-11T07:49:04.984Z,100.00
2022-10-11T07:54:20.973Z,100.00
2022-10-11T07:56:48.940Z,100.00
2022-10-11T07:59:16.936Z,100.00
2022-10-11T08:01:45.447Z,100.00
2022-10-11T08:04:13.499Z,100.00
2022-10-11T08:06:41.483Z,100.00
2022-10-11T08:09:10.397Z,100.00
2022-10-11T08:11:40.508Z,100.00
2022-10-11T08:16:56.636Z,100.00
2022-10-11T08:19:24.589Z,100.00
2022-10-11T08:21:52.585Z,100.00
2022-10-11T08:24:21.172Z,100.00
2022-10-11T08:43:51.155Z,100.00
2022-10-11T08:46:25.108Z,100.00
2022-10-11T08:48:53.772Z,100.00
2022-10-11T08:51:26.118Z,100.00
2022-10-11T08:54:04.710Z,100.00
2022-10-11T08:56:38.936Z,100.00
2022-10-11T08:59:23.141Z,100.00
2022-10-11T09:01:57.814Z,100.00
2022-10-11T09:04:26.124Z,100.00
2022-10-11T09:07:05.133Z,100.00
2022-10-11T09:09:54.544Z,100.00
2022-10-11T09:12:34.286Z,100.00
2022-10-11T09:15:22.330Z,100.00
2022-10-11T09:18:12.707Z,100.00
2022-10-11T09:21:10.501Z,100.00
2022-10-11T09:24:27.010Z,100.00
2022-10-11T09:30:41.790Z,100.00
2022-10-11T09:33:18.811Z,100.00
2022-10-11T09:35:49.955Z,100.00
2022-10-11T09:51:44.909Z,100.00
2022-10-11T09:52:55.297Z,100.00
2022-10-11T09:55:53.391Z,100.00
2022-10-11T10:37:02.453Z,99.00
2022-10-11T10:39:58.518Z,98.44
2022-10-11T10:42:28.655Z,98.49
2022-10-11T10:45:00.362Z,99.04
2022-10-11T10:47:48.363Z,98.34
2022-10-11T10:50:20.249Z,99.88
2022-10-11T10:52:56.367Z,99.64
2022-10-11T10:55:38.242Z,99.36
2022-10-11T10:58:22.947Z,99.26
2022-10-11T11:01:00.086Z,98.96
2022-10-11T11:10:13.829Z,97.89
2022-10-11T11:12:50.910Z,98.56
2022-10-11T11:15:31.241Z,99.13
2022-10-11T11:18:20.501Z,100.00
2022-10-11T11:21:09.432Z,99.26
2022-10-11T11:23:45.418Z,100.00
2022-10-11T11:26:20.419Z,100.00
2022-10-11T11:29:07.798Z,100.00
2022-10-11T11:31:52.009Z,99.61
2022-10-11T11:34:25.967Z,99.97
2022-10-11T11:36:58.131Z,99.84
2022-10-11T11:39:32.050Z,99.36
2022-10-11T11:42:05.920Z,97.85
2022-10-11T11:44:39.860Z,96.79
2022-10-11T11:47:17.911Z,98.36
2022-10-11T11:49:50.753Z,96.36
2022-10-11T11:52:28.157Z,97.35
2022-10-11T11:58:22.183Z,97.66
2022-10-11T12:00:59.809Z,97.67
2022-10-11T12:03:41.715Z,95.45
2022-10-11T12:06:25.595Z,96.84
2022-10-11T12:09:04.318Z,95.73
2022-10-11T12:11:43.626Z,95.98
2022-10-11T12:14:19.321Z,95.92
2022-10-11T12:17:07.350Z,95.62
2022-10-11T12:19:38.532Z,94.88
2022-10-11T12:22:37.516Z,95.63
2022-10-11T12:25:39.119Z,94.41
2022-10-11T12:28:48.833Z,95.10
2022-10-11T12:31:24.432Z,94.19
2022-10-11T12:34:03.911Z,94.40
2022-10-11T12:36:41.846Z,94.87
2022-10-11T12:39:43.644Z,95.22
2022-10-11T13:21:00.804Z,94.60
2022-10-11T14:33:48.354Z,92.39
2022-10-11T14:36:16.536Z,93.66
2022-10-11T14:38:44.799Z,92.10
2022-10-11T14:41:12.962Z,92.78
2022-10-11T14:43:42.466Z,93.08
2022-10-11T14:46:20.617Z,92.80
2022-10-11T14:48:56.846Z,93.29
2022-10-11T14:51:29.631Z,92.66
2022-10-11T14:53:57.772Z,92.83
2022-10-11T14:56:26.151Z,92.73
2022-10-11T14:58:55.840Z,92.73
2022-10-11T15:01:24.019Z,91.92
2022-10-11T15:03:52.362Z,92.20
2022-10-11T15:06:22.920Z,91.36
2022-10-11T15:08:51.958Z,92.44
2022-10-11T15:11:22.294Z,91.77
2022-10-11T15:13:50.787Z,92.29
2022-10-11T15:16:22.056Z,92.71
2022-10-11T15:18:52.104Z,91.93
2022-10-11T15:21:21.944Z,90.91
2022-10-11T15:23:50.863Z,92.43
2022-10-11T15:26:21.525Z,92.21
2022-10-11T15:28:50.378Z,90.99
2022-10-11T15:31:19.944Z,92.14
2022-10-11T15:33:48.671Z,92.71
2022-10-11T15:36:18.791Z,92.76
2022-10-11T15:38:47.262Z,92.23
2022-10-11T15:41:16.884Z,92.53
2022-10-11T15:43:46.898Z,92.43
2022-10-11T15:46:17.716Z,92.20
2022-10-11T15:48:47.917Z,92.10
2022-10-11T15:51:15.955Z,92.72
2022-10-11T15:53:43.945Z,92.02
2022-10-11T15:56:17.197Z,92.21
2022-10-11T15:58:45.610Z,92.10
2022-10-11T16:01:16.297Z,93.29
2022-10-11T16:03:46.925Z,93.27
2022-10-11T16:06:15.137Z,93.26
2022-10-11T16:08:43.257Z,93.54
2022-10-11T16:11:12.131Z,92.97
2022-10-11T16:13:40.496Z,92.94
2022-10-11T16:16:10.102Z,92.83
2022-10-11T16:18:38.602Z,93.51
2022-10-11T16:21:10.232Z,94.22
2022-10-11T16:23:39.073Z,94.27
2022-10-11T16:26:10.896Z,94.77
2022-10-11T16:28:40.051Z,94.96
2022-10-11T16:31:09.347Z,95.83
2022-10-11T16:34:32.827Z,96.50
2022-10-11T16:37:02.541Z,96.71
2022-10-11T16:39:30.894Z,97.35
2022-10-11T16:41:58.951Z,97.03
2022-10-11T16:44:28.008Z,97.66
2022-10-11T16:46:56.714Z,97.73
2022-10-11T16:49:27.694Z,98.38
2022-10-11T16:51:59.053Z,98.25
2022-10-11T16:54:29.556Z,98.31
2022-10-11T16:56:58.088Z,98.21
2022-10-11T16:59:26.143Z,98.51
2022-10-11T17:01:54.228Z,99.54
2022-10-11T17:04:22.451Z,99.94
2022-10-11T17:06:51.276Z,99.90
2022-10-11T17:09:19.435Z,100.00
2022-10-11T17:11:49.142Z,100.00
2022-10-11T17:14:17.690Z,100.00
2022-10-11T17:16:46.527Z,100.00
2022-10-11T17:19:17.036Z,100.00
2022-10-11T17:21:45.030Z,100.00
2022-10-11T17:24:13.304Z,100.00
2022-10-11T17:26:42.750Z,100.00
2022-10-11T17:29:16.262Z,100.00
2022-10-11T17:31:48.984Z,100.00
2022-10-11T17:34:20.401Z,100.00
2022-10-11T17:36:49.180Z,100.00
2022-10-11T17:39:19.271Z,100.00
2022-10-11T17:41:47.721Z,100.00
2022-10-11T17:44:18.943Z,100.00
2022-10-11T17:46:47.456Z,100.00
2022-10-11T17:49:15.816Z,100.00
2022-10-11T17:51:43.980Z,100.00
2022-10-11T17:54:13.271Z,100.00
2022-10-11T17:56:42.716Z,100.00
2022-10-11T17:59:18.598Z,100.00
2022-10-11T18:01:46.723Z,100.00
2022-10-11T18:04:16.938Z,100.00
2022-10-11T18:06:46.806Z,100.00
2022-10-11T18:09:17.508Z,100.00
2022-10-11T18:11:45.857Z,100.00
2022-10-11T18:14:14.083Z,100.00
2022-10-11T18:16:43.886Z,100.00
2022-10-11T18:19:14.406Z,100.00
2022-10-11T18:21:42.531Z,100.00
2022-10-11T18:24:14.973Z,100.00
2022-10-11T18:26:43.728Z,100.00
2022-10-11T18:29:12.678Z,100.00
2022-10-11T18:31:40.829Z,100.00
2022-10-11T18:34:13.935Z,100.00
2022-10-11T18:36:41.890Z,100.00
2022-10-11T18:39:13.446Z,100.00
2022-10-11T18:41:44.684Z,100.00
2022-10-11T18:44:15.225Z,100.00
2022-10-11T18:46:44.262Z,100.00
2022-10-11T18:49:14.637Z,100.00
2022-10-11T18:51:43.471Z,100.00
2022-10-11T18:54:16.735Z,100.00
2022-10-11T18:56:48.157Z,100.00
2022-10-11T18:59:16.207Z,100.00
2022-10-11T19:01:45.980Z,100.00
2022-10-11T19:04:16.958Z,100.00
2022-10-11T19:06:48.346Z,100.00
2022-10-11T19:09:21.624Z,100.00
2022-10-11T19:11:50.097Z,100.00
2022-10-11T19:14:19.755Z,100.00
2022-10-11T19:16:51.319Z,100.00
2022-10-11T19:19:22.747Z,100.00
2022-10-11T19:21:51.435Z,100.00
2022-10-11T19:24:21.194Z,100.00
2022-10-11T19:26:49.361Z,100.00
2022-10-11T19:29:19.901Z,100.00
2022-10-11T19:31:51.305Z,100.00
2022-10-11T19:34:21.287Z,100.00
2022-10-11T19:36:50.799Z,100.00
2022-10-11T19:39:19.786Z,100.00
2022-10-11T19:41:47.841Z,100.00
2022-10-11T19:44:16.398Z,100.00
2022-10-11T19:46:51.529Z,100.00
2022-10-11T19:49:25.109Z,100.00
2022-10-11T19:51:55.218Z,100.00
2022-10-11T19:54:23.581Z,100.00
2022-10-11T19:56:51.567Z,100.00
2022-10-11T19:59:19.813Z,100.00
2022-10-11T20:01:52.332Z,100.00
2022-10-11T20:04:50.686Z,100.00
2022-10-11T20:07:11.440Z,100.00
2022-10-11T20:09:39.425Z,100.00
2022-10-11T20:12:07.877Z,100.00
2022-10-11T20:14:35.880Z,100.00
2022-10-11T20:17:03.926Z,100.00
2022-10-11T20:19:33.343Z,100.00
2022-10-11T20:22:01.733Z,100.00
2022-10-11T20:24:33.620Z,100.00
2022-10-11T20:27:03.069Z,100.00
2022-10-11T20:29:31.089Z,100.00
2022-10-11T20:31:59.856Z,100.00
2022-10-11T20:34:28.451Z,100.00
2022-10-11T20:36:57.903Z,100.00
2022-10-11T20:39:26.091Z,100.00
2022-10-11T20:41:54.052Z,100.00
2022-10-11T20:44:22.019Z,100.00
2022-10-11T20:46:49.982Z,100.00
2022-10-11T20:49:19.970Z,100.00
2022-10-11T20:51:48.143Z,100.00
2022-10-11T20:54:18.107Z,100.00
2022-10-11T20:56:46.254Z,100.00
2022-10-11T20:59:14.218Z,100.00
2022-10-11T21:01:42.594Z,100.00
2022-10-11T21:04:17.773Z,100.00
2022-10-11T21:06:45.903Z,100.00
2022-10-11T21:09:16.402Z,100.00
2022-10-11T21:11:46.879Z,100.00
2022-10-11T21:14:15.046Z,100.00
2022-10-11T21:16:43.290Z,100.00
2022-10-11T21:19:16.346Z,100.00
2022-10-11T21:21:50.992Z,100.00
2022-10-11T21:24:21.543Z,100.00
2022-10-11T21:26:50.980Z,100.00
2022-10-11T21:29:19.257Z,100.00
2022-10-11T21:31:47.215Z,100.00
2022-10-11T21:34:15.677Z,100.00
2022-10-11T21:36:43.731Z,100.00
2022-10-11T21:39:11.710Z,100.00
2022-10-11T21:41:42.195Z,100.00
2022-10-11T21:44:11.723Z,100.00
2022-10-11T21:47:05.610Z,100.00
2022-10-11T21:49:27.642Z,100.00
2022-10-11T21:51:56.095Z,100.00
2022-10-11T21:54:24.085Z,100.00
2022-10-11T21:56:52.007Z,100.00
2022-10-11T21:59:22.595Z,100.00
2022-10-11T22:01:50.567Z,100.00
2022-10-11T22:04:18.623Z,100.00
2022-10-11T22:06:46.596Z,100.00
2022-10-11T22:09:14.621Z,100.00
2022-10-11T22:11:42.592Z,100.00
2022-10-11T22:14:10.772Z,100.00
2022-10-11T22:16:40.459Z,100.00
2022-10-11T22:19:08.732Z,100.00
2022-10-11T22:21:39.171Z,100.00
2022-10-11T22:24:12.740Z,100.00
2022-10-11T22:27:12.322Z,100.00
2022-10-11T22:29:34.356Z,100.00
2022-10-11T22:32:04.111Z,100.00
2022-10-11T22:34:33.440Z,100.00
2022-10-11T22:37:09.052Z,100.00
2022-10-11T22:39:37.194Z,100.00
2022-10-11T22:42:05.508Z,100.00
2022-10-11T22:47:35.602Z,100.00
2022-10-11T22:50:06.159Z,100.00
2022-10-11T22:52:34.324Z,100.00
2022-10-11T22:55:02.428Z,100.00
2022-10-11T22:57:30.831Z,100.00
2022-10-11T22:59:58.879Z,100.00
2022-10-11T23:02:26.949Z,100.00
2022-10-11T23:04:56.894Z,100.00
2022-10-11T23:07:25.036Z,100.00
2022-10-11T23:09:53.077Z,100.00
2022-10-11T23:12:21.221Z,100.00
2022-10-11T23:14:49.385Z,100.00
2022-10-11T23:17:17.498Z,100.00
2022-10-11T23:19:45.555Z,100.00
2022-10-11T23:22:15.456Z,100.00
2022-10-11T23:24:43.521Z,100.00
2022-10-11T23:27:11.614Z,100.00
2022-10-11T23:29:41.154Z,100.00
2022-10-11T23:32:10.117Z,100.00
2022-10-11T23:34:38.293Z,100.00
2022-10-11T23:37:06.852Z,100.00
2022-10-11T23:39:36.326Z,100.00
2022-10-11T23:42:04.386Z,100.00
2022-10-11T23:44:32.480Z,100.00
2022-10-11T23:47:00.528Z,100.00
2022-10-11T23:49:28.606Z,100.00
2022-10-11T23:51:57.343Z,100.00
2022-10-11T23:54:25.433Z,100.00
2022-10-11T23:56:54.852Z,100.00
2022-10-11T23:59:22.989Z,100.00
